Time;durP1;ratioP1;P1;durP2;ratioP2;P2;SDS_P1;SDS_P2;PMS_P1;PMS_P2;Temp;Humidity;BMP_temperature;BMP_pressure;BME280_temperature;BME280_humidity;BME280_pressure;Samples;Min_cycle;Max_cycle;Signal;HPM_P1;HPM_P2
2022/06/27 00:01:14;;;;;;;8.85;8.05;;;17.20;99.90;;;;;;5063827;28;20040;-45
2022/06/27 00:03:40;;;;;;;10.57;8.32;;;17.20;99.90;;;;;;5062501;28;20143;-44
2022/06/27 00:06:05;;;;;;;11.55;8.77;;;17.20;99.90;;;;;;5064259;28;20048;-46
2022/06/27 00:08:31;;;;;;;9.93;8.98;;;17.20;99.90;;;;;;5066073;28;20052;-45
2022/06/27 00:10:57;;;;;;;9.75;8.70;;;17.20;99.90;;;;;;5066015;28;20621;-46
2022/06/27 00:13:25;;;;;;;9.82;8.25;;;17.10;99.90;;;;;;5067582;28;20141;-46
2022/06/27 00:15:51;;;;;;;10.18;8.85;;;17.10;99.90;;;;;;5048442;28;20109;-42
2022/06/27 00:18:17;;;;;;;9.10;8.13;;;17.10;99.90;;;;;;5066928;28;20525;-48
2022/06/27 00:20:42;;;;;;;9.60;8.68;;;17.10;99.90;;;;;;5063947;28;20147;-46
2022/06/27 00:23:08;;;;;;;11.20;9.88;;;17.00;99.90;;;;;;5063992;28;20052;-46
2022/06/27 00:25:34;;;;;;;9.48;8.70;;;17.00;99.90;;;;;;5062142;28;20386;-49
2022/06/27 00:27:59;;;;;;;9.52;8.55;;;17.00;99.90;;;;;;5062891;28;20040;-45
2022/06/27 00:30:27;;;;;;;10.50;9.25;;;16.90;99.90;;;;;;5063519;28;20048;-46
2022/06/27 00:32:52;;;;;;;10.23;9.18;;;17.00;99.90;;;;;;5058236;28;20111;-46
2022/06/27 00:35:18;;;;;;;11.90;9.30;;;16.90;99.90;;;;;;5059250;28;20459;-44
2022/06/27 00:37:44;;;;;;;13.70;9.68;;;16.90;99.90;;;;;;5062692;28;20118;-46
2022/06/27 00:40:10;;;;;;;9.73;8.63;;;16.90;99.90;;;;;;5043571;28;20510;-46
2022/06/27 00:42:36;;;;;;;10.98;9.15;;;16.90;99.90;;;;;;5060867;28;20059;-47
2022/06/27 00:45:02;;;;;;;10.27;9.27;;;16.90;99.90;;;;;;5062491;28;20052;-44
2022/06/27 00:47:28;;;;;;;11.00;9.90;;;16.90;99.90;;;;;;5050318;28;20470;-48
2022/06/27 00:49:54;;;;;;;11.38;10.27;;;16.90;99.90;;;;;;5025804;28;20049;-47
2022/06/27 00:52:20;;;;;;;12.07;10.02;;;16.80;99.90;;;;;;5019972;28;20084;-47
2022/06/27 00:54:47;;;;;;;10.70;9.23;;;16.80;99.90;;;;;;5040284;28;20053;-46
2022/06/27 00:57:14;;;;;;;11.30;10.02;;;16.80;99.90;;;;;;5029362;28;20535;-46
2022/06/27 00:59:41;;;;;;;10.52;9.52;;;16.80;99.90;;;;;;5030360;28;20052;-47
2022/06/27 01:02:07;;;;;;;12.02;10.00;;;16.80;99.90;;;;;;5009781;28;20536;-50
2022/06/27 01:04:36;;;;;;;11.13;9.80;;;16.80;99.90;;;;;;5015707;28;20065;-45
2022/06/27 01:07:02;;;;;;;10.25;9.23;;;16.80;99.90;;;;;;5018680;28;20508;-48
2022/06/27 01:09:27;;;;;;;11.32;10.07;;;16.80;99.90;;;;;;5022427;28;20156;-50
2022/06/27 01:11:53;;;;;;;10.27;9.25;;;16.80;99.90;;;;;;5021833;28;20052;-48
2022/06/27 01:14:19;;;;;;;11.20;10.02;;;16.80;99.90;;;;;;5021482;28;20232;-49
2022/06/27 01:16:45;;;;;;;10.95;9.85;;;16.80;99.90;;;;;;5022625;28;20045;-46
2022/06/27 01:19:15;;;;;;;10.68;9.68;;;16.80;99.90;;;;;;5012947;28;20049;-45
2022/06/27 01:21:49;;;;;;;12.07;9.70;;;16.80;99.90;;;;;;5026474;28;20050;-47
2022/06/27 01:24:16;;;;;;;9.93;8.93;;;16.80;99.90;;;;;;5015792;28;20636;-44
2022/06/27 01:26:43;;;;;;;10.57;9.63;;;16.80;99.90;;;;;;5027355;28;20068;-46
2022/06/27 01:29:10;;;;;;;10.45;9.27;;;16.80;99.90;;;;;;5022986;28;20121;-45
2022/06/27 01:31:37;;;;;;;10.38;9.27;;;16.80;99.90;;;;;;5027727;28;20045;-44
2022/06/27 01:34:04;;;;;;;12.10;9.52;;;16.80;99.90;;;;;;5029149;28;20064;-46
2022/06/27 01:36:41;;;;;;;10.45;9.45;;;16.80;99.90;;;;;;5022501;28;20084;-48
2022/06/27 01:39:12;;;;;;;10.52;9.60;;;16.80;99.90;;;;;;5037742;28;20693;-45
2022/06/27 01:41:47;;;;;;;15.70;10.35;;;16.80;99.90;;;;;;5021370;28;20544;-47
2022/06/27 01:44:14;;;;;;;15.13;10.52;;;16.80;99.90;;;;;;5028668;28;20045;-44
2022/06/27 01:46:40;;;;;;;13.55;10.93;;;16.80;99.90;;;;;;5025242;28;20477;-46
2022/06/27 01:49:06;;;;;;;11.13;10.13;;;16.80;99.90;;;;;;5062214;28;20064;-46
2022/06/27 01:51:33;;;;;;;9.85;8.98;;;16.80;99.90;;;;;;5060936;28;20044;-46
2022/06/27 01:53:59;;;;;;;9.32;8.52;;;16.80;99.90;;;;;;5060914;28;20052;-46
2022/06/27 01:56:24;;;;;;;11.32;10.20;;;16.80;99.90;;;;;;5060441;28;20094;-45
2022/06/27 01:58:52;;;;;;;10.18;9.18;;;16.80;99.90;;;;;;5061136;28;20052;-46
2022/06/27 02:01:18;;;;;;;11.75;10.55;;;16.80;99.90;;;;;;5061196;28;20120;-44
2022/06/27 02:03:44;;;;;;;12.02;9.95;;;16.70;99.90;;;;;;5060344;28;20403;-47
2022/06/27 02:06:11;;;;;;;11.63;10.25;;;16.70;99.90;;;;;;5060067;28;20059;-45
2022/06/27 02:08:41;;;;;;;11.60;10.52;;;16.70;99.90;;;;;;5060531;28;20117;-45
2022/06/27 02:11:08;;;;;;;12.55;11.25;;;16.70;99.90;;;;;;5060477;28;20561;-45
2022/06/27 02:13:34;;;;;;;12.02;10.73;;;16.70;99.90;;;;;;5059283;28;20052;-45
2022/06/27 02:16:06;;;;;;;11.90;10.80;;;16.70;99.90;;;;;;5059191;28;20505;-47
2022/06/27 02:18:33;;;;;;;11.32;10.25;;;16.60;99.90;;;;;;5033963;28;20051;-44
2022/06/27 02:20:59;;;;;;;11.98;10.85;;;16.70;99.90;;;;;;5057665;28;20344;-44
2022/06/27 02:23:26;;;;;;;11.38;10.27;;;16.70;99.90;;;;;;5041178;28;20048;-44
2022/06/27 02:25:53;;;;;;;11.63;10.63;;;16.70;99.90;;;;;;5060051;28;20079;-45
2022/06/27 02:28:22;;;;;;;13.95;11.30;;;16.70;99.90;;;;;;5048864;28;20052;-47
2022/06/27 02:30:49;;;;;;;13.38;12.00;;;16.70;99.90;;;;;;5060884;28;20055;-44
2022/06/27 02:33:15;;;;;;;13.95;12.55;;;16.70;99.90;;;;;;5042293;28;20087;-44
2022/06/27 02:35:42;;;;;;;15.73;12.30;;;16.70;99.90;;;;;;5059770;28;20045;-47
2022/06/27 02:38:10;;;;;;;13.48;12.20;;;16.70;99.90;;;;;;5042665;28;20207;-46
2022/06/27 02:40:40;;;;;;;12.65;11.43;;;16.70;99.90;;;;;;5059430;28;20060;-45
2022/06/27 02:43:08;;;;;;;14.30;12.88;;;16.70;99.90;;;;;;5060447;28;20055;-48
2022/06/27 02:45:36;;;;;;;12.27;11.00;;;16.60;99.90;;;;;;5041430;28;20091;-49
2022/06/27 02:48:03;;;;;;;12.13;10.93;;;16.60;99.90;;;;;;5023765;28;20054;-44
2022/06/27 02:50:32;;;;;;;13.48;11.35;;;16.70;99.90;;;;;;5017168;28;20049;-44
2022/06/27 02:53:05;;;;;;;14.18;12.07;;;16.70;99.90;;;;;;5017662;28;20041;-45
2022/06/27 02:55:43;;;;;;;13.80;12.23;;;16.70;99.90;;;;;;5020934;28;20065;-47
2022/06/27 02:58:37;;;;;;;12.65;11.55;;;16.70;99.90;;;;;;5011437;28;20060;-45
2022/06/27 03:01:03;;;;;;;13.85;12.45;;;16.70;99.90;;;;;;5025788;28;20148;-44
2022/06/27 03:03:33;;;;;;;13.20;11.85;;;16.70;99.90;;;;;;5021064;28;20053;-45
2022/06/27 03:06:10;;;;;;;13.70;11.55;;;16.60;99.90;;;;;;5029059;28;20075;-45
2022/06/27 03:08:41;;;;;;;13.65;12.35;;;16.60;99.90;;;;;;5020527;28;20431;-45
2022/06/27 03:11:09;;;;;;;12.52;11.38;;;16.60;99.90;;;;;;5019947;28;20698;-47
2022/06/27 03:13:35;;;;;;;12.85;11.63;;;16.60;99.90;;;;;;5013343;28;20057;-48
2022/06/27 03:16:01;;;;;;;14.63;12.38;;;16.60;99.90;;;;;;5018037;28;20512;-44
2022/06/27 03:18:27;;;;;;;13.23;11.80;;;16.60;99.90;;;;;;5019763;28;20057;-47
2022/06/27 03:20:52;;;;;;;14.43;13.10;;;16.60;99.90;;;;;;5016665;28;20127;-45
2022/06/27 03:23:18;;;;;;;15.05;13.65;;;16.60;99.90;;;;;;5029170;28;20060;-45
2022/06/27 03:25:44;;;;;;;14.80;13.18;;;16.60;99.90;;;;;;5026518;28;20053;-45
2022/06/27 03:28:10;;;;;;;14.60;13.25;;;16.50;99.90;;;;;;5021938;28;20046;-47
2022/06/27 03:30:36;;;;;;;15.75;14.20;;;16.50;99.90;;;;;;5016869;28;20084;-45
2022/06/27 03:33:02;;;;;;;15.30;13.73;;;16.50;99.90;;;;;;5026330;28;20059;-47
2022/06/27 03:35:28;;;;;;;15.60;12.98;;;16.50;99.90;;;;;;5021596;28;20053;-47
2022/06/27 03:37:54;;;;;;;13.13;11.88;;;16.50;99.90;;;;;;5027358;28;20495;-45
2022/06/27 03:40:19;;;;;;;13.32;11.85;;;16.50;99.90;;;;;;5021773;28;20111;-46
2022/06/27 03:42:45;;;;;;;12.75;11.63;;;16.50;99.90;;;;;;5026623;28;20396;-46
2022/06/27 03:45:11;;;;;;;13.68;12.07;;;16.50;99.90;;;;;;5030060;28;20057;-45
2022/06/27 03:47:57;;;;;;;12.70;11.43;;;16.50;99.90;;;;;;5039068;28;20422;-45
2022/06/27 03:50:29;;;;;;;13.88;12.68;;;16.50;99.90;;;;;;5060433;28;20139;-45
2022/06/27 03:53:01;;;;;;;17.70;14.57;;;16.60;99.90;;;;;;5058475;28;20044;-43
2022/06/27 03:55:27;;;;;;;15.30;13.70;;;16.60;99.90;;;;;;5062954;28;20055;-46
2022/06/27 03:57:57;;;;;;;14.48;13.02;;;16.60;99.90;;;;;;5045156;28;20475;-48
2022/06/27 04:00:26;;;;;;;14.52;13.10;;;16.60;99.90;;;;;;5061376;28;20482;-45
2022/06/27 04:02:55;;;;;;;13.75;12.55;;;16.60;99.90;;;;;;5063406;28;20048;-46
2022/06/27 04:05:21;;;;;;;14.50;13.15;;;16.60;99.90;;;;;;5062572;28;20060;-43
2022/06/27 04:07:49;;;;;;;14.07;12.68;;;16.60;99.90;;;;;;5063280;28;20394;-48
2022/06/27 04:10:16;;;;;;;16.38;13.85;;;16.60;99.90;;;;;;5044829;28;20056;-47
2022/06/27 04:12:42;;;;;;;18.50;13.80;;;16.60;99.90;;;;;;5064342;28;20045;-45
2022/06/27 04:15:09;;;;;;;14.55;13.15;;;16.60;99.90;;;;;;5038745;28;20076;-43
2022/06/27 04:17:34;;;;;;;15.77;14.30;;;16.60;99.90;;;;;;5057607;28;20102;-48
2022/06/27 04:20:01;;;;;;;14.98;13.68;;;16.60;99.90;;;;;;5060380;28;20052;-46
2022/06/27 04:22:28;;;;;;;14.10;12.80;;;16.60;99.90;;;;;;5059450;28;20106;-46
2022/06/27 04:24:55;;;;;;;15.77;14.30;;;16.70;99.90;;;;;;5057187;28;20054;-47
2022/06/27 04:27:21;;;;;;;16.02;14.45;;;16.70;99.90;;;;;;5042058;28;20106;-46
2022/06/27 04:29:50;;;;;;;13.93;12.60;;;16.70;99.90;;;;;;5037810;28;20049;-46
2022/06/27 04:32:17;;;;;;;13.98;12.75;;;16.80;99.90;;;;;;5040622;28;20060;-51
2022/06/27 04:34:43;;;;;;;15.88;13.38;;;16.80;99.90;;;;;;5029518;28;20049;-45
2022/06/27 04:37:15;;;;;;;13.90;12.48;;;16.90;99.90;;;;;;5058261;28;20048;-43
2022/06/27 04:39:42;;;;;;;14.60;13.30;;;16.90;99.90;;;;;;5058392;28;20128;-47
2022/06/27 04:42:09;;;;;;;16.23;14.80;;;16.90;99.90;;;;;;5062695;28;20075;-46
2022/06/27 04:44:43;;;;;;;16.67;13.77;;;17.00;99.90;;;;;;5062598;28;20067;-45
2022/06/27 04:47:12;;;;;;;16.17;14.77;;;17.00;99.90;;;;;;5048809;28;20535;-45
2022/06/27 04:49:39;;;;;;;15.63;14.05;;;17.00;99.90;;;;;;5027906;28;20041;-48
2022/06/27 04:52:08;;;;;;;14.38;13.02;;;17.00;99.90;;;;;;5024042;28;20049;-47
2022/06/27 04:54:35;;;;;;;15.32;13.82;;;17.00;99.90;;;;;;5036247;28;20496;-47
2022/06/27 04:57:03;;;;;;;14.88;13.50;;;17.10;99.90;;;;;;5014262;28;20497;-45
2022/06/27 04:59:29;;;;;;;14.75;13.35;;;17.20;99.90;;;;;;5015059;28;20088;-45
2022/06/27 05:01:55;;;;;;;14.65;13.35;;;17.20;99.90;;;;;;5022749;28;20128;-48
2022/06/27 05:04:22;;;;;;;17.00;13.77;;;17.20;99.90;;;;;;5022200;28;20591;-43
2022/06/27 05:06:51;;;;;;;14.70;13.20;;;17.30;99.90;;;;;;5013328;28;20045;-46
2022/06/27 05:09:17;;;;;;;14.27;12.80;;;17.30;99.90;;;;;;5013559;28;20064;-49
2022/06/27 05:11:45;;;;;;;14.18;12.77;;;17.40;99.90;;;;;;5027087;28;20041;-47
2022/06/27 05:14:11;;;;;;;14.05;12.68;;;17.40;99.90;;;;;;5016745;28;20057;-45
2022/06/27 05:16:37;;;;;;;15.00;13.50;;;17.40;99.90;;;;;;5017521;28;20879;-45
2022/06/27 05:19:03;;;;;;;14.63;13.27;;;17.50;99.90;;;;;;5020806;28;20447;-44
2022/06/27 05:21:29;;;;;;;16.08;14.50;;;17.60;99.90;;;;;;5021375;28;20481;-45
2022/06/27 05:23:56;;;;;;;14.70;13.50;;;17.70;99.90;;;;;;5032075;28;20050;-48
2022/06/27 05:26:22;;;;;;;15.10;13.82;;;17.80;99.90;;;;;;5021047;28;20520;-46
2022/06/27 05:28:48;;;;;;;14.98;13.68;;;17.80;99.90;;;;;;5039265;28;20599;-47
2022/06/27 05:31:14;;;;;;;15.15;13.55;;;17.90;99.90;;;;;;5024383;28;20049;-50
2022/06/27 05:33:40;;;;;;;13.88;12.48;;;18.00;99.90;;;;;;5022422;28;20048;-46
2022/06/27 05:36:06;;;;;;;18.15;13.73;;;18.00;99.90;;;;;;5020169;28;20072;-47
2022/06/27 05:38:33;;;;;;;15.32;13.82;;;18.00;99.90;;;;;;5030860;28;20152;-46
2022/06/27 05:40:59;;;;;;;14.60;12.98;;;18.00;99.90;;;;;;5014686;28;20053;-45
2022/06/27 05:43:25;;;;;;;14.75;13.40;;;18.00;99.90;;;;;;5020980;28;20041;-46
2022/06/27 05:45:52;;;;;;;15.63;14.23;;;18.00;99.90;;;;;;5036523;28;20771;-46
2022/06/27 05:48:19;;;;;;;14.80;13.38;;;18.10;99.90;;;;;;5020749;28;20057;-47
2022/06/27 05:50:44;;;;;;;15.38;13.77;;;18.30;99.90;;;;;;5020753;28;20049;-45
2022/06/27 05:53:10;;;;;;;15.65;13.93;;;18.40;99.90;;;;;;5010997;28;20049;-47
2022/06/27 05:55:38;;;;;;;14.93;13.38;;;18.60;99.90;;;;;;5020786;28;20500;-45
2022/06/27 05:58:04;;;;;;;16.73;14.40;;;18.70;99.90;;;;;;5021133;28;20064;-45
2022/06/27 06:00:31;;;;;;;14.68;12.55;;;18.70;99.90;;;;;;5021648;28;20559;-48
2022/06/27 06:03:03;;;;;;;14.18;12.77;;;18.70;99.90;;;;;;5021063;28;20076;-45
2022/06/27 06:05:32;;;;;;;14.13;12.70;;;18.70;99.90;;;;;;5021465;28;20045;-46
2022/06/27 06:08:06;;;;;;;14.60;13.10;;;18.70;99.90;;;;;;5020717;28;20308;-46
2022/06/27 06:10:35;;;;;;;15.80;14.25;;;18.60;99.90;;;;;;5021846;28;20072;-45
2022/06/27 06:13:03;;;;;;;16.45;14.93;;;18.60;99.90;;;;;;5002563;28;20080;-46
2022/06/27 06:15:31;;;;;;;17.75;16.20;;;18.40;99.90;;;;;;4986139;28;20049;-45
2022/06/27 06:18:01;;;;;;;17.48;15.88;;;18.40;99.90;;;;;;5021435;28;20050;-45
2022/06/27 06:20:27;;;;;;;17.70;16.10;;;18.40;99.90;;;;;;5002147;28;20579;-45
2022/06/27 06:22:53;;;;;;;17.27;15.60;;;18.40;99.90;;;;;;5019582;28;20041;-46
2022/06/27 06:25:19;;;;;;;16.80;15.05;;;18.50;99.90;;;;;;5020717;28;20080;-45
2022/06/27 06:27:45;;;;;;;17.00;15.50;;;18.50;99.90;;;;;;5020690;28;20488;-45
2022/06/27 06:30:11;;;;;;;15.95;14.48;;;18.50;99.90;;;;;;5020108;28;20103;-45
2022/06/27 06:32:37;;;;;;;16.00;14.15;;;18.50;99.90;;;;;;5017518;28;20602;-46
2022/06/27 06:35:05;;;;;;;15.63;14.13;;;18.60;99.90;;;;;;5018732;28;20055;-45
2022/06/27 06:37:31;;;;;;;15.77;14.30;;;18.60;99.90;;;;;;5019503;28;20045;-43
2022/06/27 06:39:58;;;;;;;14.48;13.18;;;18.60;99.90;;;;;;5022978;28;20049;-47
2022/06/27 06:42:24;;;;;;;15.20;13.80;;;18.60;99.90;;;;;;5008584;28;20053;-48
2022/06/27 06:44:52;;;;;;;14.68;13.27;;;18.50;99.90;;;;;;5022738;28;20091;-44
2022/06/27 06:47:19;;;;;;;14.25;12.98;;;18.50;99.90;;;;;;5034803;28;20530;-45
2022/06/27 06:49:55;;;;;;;14.50;13.10;;;18.50;99.90;;;;;;5058414;28;20059;-47
2022/06/27 06:52:22;;;;;;;15.05;13.68;;;18.50;99.90;;;;;;5066805;28;20058;-51
2022/06/27 06:54:53;;;;;;;16.02;13.60;;;18.50;99.90;;;;;;5045983;28;20057;-44
2022/06/27 06:57:19;;;;;;;14.55;13.20;;;18.60;99.90;;;;;;5060007;28;20052;-44
2022/06/27 06:59:45;;;;;;;14.38;12.93;;;18.70;99.90;;;;;;5059324;28;20036;-46
2022/06/27 07:02:10;;;;;;;14.40;12.93;;;18.70;99.90;;;;;;5041670;28;20052;-47
2022/06/27 07:04:38;;;;;;;14.88;13.48;;;18.70;99.90;;;;;;5059051;28;20052;-44
2022/06/27 07:07:03;;;;;;;13.07;11.90;;;18.80;99.90;;;;;;5059907;28;20052;-46
2022/06/27 07:09:29;;;;;;;13.48;12.18;;;18.80;99.90;;;;;;5060406;28;20091;-46
2022/06/27 07:11:55;;;;;;;12.80;11.55;;;18.70;99.90;;;;;;5060727;28;20048;-50
2022/06/27 07:14:21;;;;;;;13.48;12.27;;;18.60;99.90;;;;;;5059433;28;20138;-47
2022/06/27 07:16:48;;;;;;;13.45;12.23;;;18.60;99.90;;;;;;5060952;28;20048;-46
2022/06/27 07:19:14;;;;;;;13.32;12.02;;;18.50;99.90;;;;;;5061356;28;20048;-50
2022/06/27 07:21:40;;;;;;;12.10;11.00;;;18.50;99.90;;;;;;5053601;28;20040;-47
2022/06/27 07:24:08;;;;;;;11.93;10.73;;;18.50;99.90;;;;;;5059731;28;20474;-46
2022/06/27 07:26:35;;;;;;;11.07;10.07;;;18.50;99.90;;;;;;5059848;28;20056;-46
2022/06/27 07:29:05;;;;;;;12.43;11.32;;;18.40;99.90;;;;;;5049843;28;20052;-47
2022/06/27 07:31:31;;;;;;;11.07;10.07;;;18.40;99.90;;;;;;5058843;28;20067;-47
2022/06/27 07:33:58;;;;;;;11.25;10.15;;;18.30;99.90;;;;;;5059126;28;20048;-47
2022/06/27 07:36:26;;;;;;;11.50;10.40;;;18.30;99.90;;;;;;5037368;28;20057;-45
2022/06/27 07:38:54;;;;;;;12.13;10.88;;;18.30;99.90;;;;;;5057900;28;20048;-46
2022/06/27 07:41:22;;;;;;;10.85;9.80;;;18.30;99.90;;;;;;5040902;28;20125;-48
2022/06/27 07:43:48;;;;;;;12.18;10.02;;;18.30;99.90;;;;;;5059077;28;20040;-45
2022/06/27 07:46:17;;;;;;;10.07;8.98;;;18.30;99.90;;;;;;5040346;28;20109;-45
2022/06/27 07:48:44;;;;;;;10.10;9.18;;;18.40;99.90;;;;;;5058286;28;20056;-48
2022/06/27 07:51:10;;;;;;;10.75;9.75;;;18.30;99.90;;;;;;5052944;28;20131;-47
2022/06/27 07:53:37;;;;;;;10.63;9.60;;;18.40;99.90;;;;;;5059542;28;20053;-42
2022/06/27 07:56:06;;;;;;;10.07;9.27;;;18.40;99.90;;;;;;5060449;28;20071;-45
2022/06/27 07:58:35;;;;;;;10.27;9.30;;;18.50;99.90;;;;;;5043000;28;20071;-47
2022/06/27 08:01:06;;;;;;;11.00;10.10;;;18.50;99.90;;;;;;5060590;28;20048;-47
2022/06/27 08:03:44;;;;;;;10.85;9.75;;;18.60;99.90;;;;;;5062530;28;20056;-47
2022/06/27 08:06:29;;;;;;;11.02;10.13;;;18.70;99.90;;;;;;5064078;28;20089;-46
2022/06/27 08:09:04;;;;;;;10.98;9.93;;;18.70;99.90;;;;;;5037314;28;20082;-46
2022/06/27 08:11:32;;;;;;;11.13;9.82;;;18.90;99.90;;;;;;5057935;28;20048;-51
2022/06/27 08:14:06;;;;;;;12.57;8.95;;;19.00;99.90;;;;;;5060467;28;20044;-48
2022/06/27 08:16:33;;;;;;;9.88;9.05;;;19.10;99.90;;;;;;5052961;28;20070;-47
2022/06/27 08:19:00;;;;;;;10.45;9.35;;;19.20;99.90;;;;;;5063883;28;20063;-46
2022/06/27 08:21:27;;;;;;;10.35;9.23;;;19.30;99.90;;;;;;5063284;28;20129;-46
2022/06/27 08:23:59;;;;;;;10.07;9.07;;;19.30;99.90;;;;;;5062256;28;20063;-45
2022/06/27 08:26:25;;;;;;;10.25;9.25;;;19.30;99.90;;;;;;5028885;28;20067;-46
2022/06/27 08:28:53;;;;;;;10.35;9.45;;;19.30;99.90;;;;;;5061199;28;20617;-46
2022/06/27 08:31:19;;;;;;;9.60;8.80;;;19.30;99.90;;;;;;5060742;28;20049;-45
2022/06/27 08:33:51;;;;;;;9.65;8.85;;;19.30;99.90;;;;;;5061722;28;20056;-47
2022/06/27 08:36:17;;;;;;;9.27;8.57;;;19.40;99.90;;;;;;5038956;28;20064;-48
2022/06/27 08:38:50;;;;;;;10.45;9.38;;;19.40;99.90;;;;;;5062636;28;20287;-47
2022/06/27 08:41:21;;;;;;;10.68;9.68;;;19.30;99.90;;;;;;5056997;28;20763;-44
2022/06/27 08:43:55;;;;;;;11.07;8.52;;;19.30;99.90;;;;;;5061570;28;20052;-48
2022/06/27 08:46:22;;;;;;;10.32;9.10;;;19.40;99.90;;;;;;5062639;28;20218;-45
2022/06/27 08:48:50;;;;;;;10.30;9.25;;;19.40;99.90;;;;;;5066362;28;20123;-45
2022/06/27 08:51:17;;;;;;;10.45;9.55;;;19.40;99.90;;;;;;5063361;28;20052;-46
2022/06/27 08:53:43;;;;;;;10.48;9.55;;;19.60;99.90;;;;;;5043634;28;20056;-46
2022/06/27 08:56:10;;;;;;;9.43;8.63;;;19.70;99.90;;;;;;5062261;28;20068;-50
2022/06/27 08:58:37;;;;;;;10.07;9.18;;;19.90;99.90;;;;;;5043212;28;20114;-46
2022/06/27 09:01:04;;;;;;;10.10;9.20;;;20.00;99.90;;;;;;5063041;28;20043;-46
2022/06/27 09:03:32;;;;;;;9.95;9.05;;;20.20;99.90;;;;;;5062319;28;20514;-47
2022/06/27 09:06:06;;;;;;;9.55;8.75;;;20.40;99.90;;;;;;5062378;28;20052;-48
2022/06/27 09:08:36;;;;;;;10.02;8.77;;;20.60;99.90;;;;;;5046665;28;20494;-46
2022/06/27 09:11:03;;;;;;;9.85;8.95;;;20.90;99.90;;;;;;5062670;28;20054;-46
2022/06/27 09:13:29;;;;;;;8.98;8.15;;;21.10;99.90;;;;;;5052249;28;20106;-48
2022/06/27 09:15:56;;;;;;;10.98;9.07;;;21.50;99.90;;;;;;5060751;28;20083;-48
2022/06/27 09:18:31;;;;;;;8.88;7.90;;;21.70;99.90;;;;;;5063079;28;20135;-46
2022/06/27 09:21:05;;;;;;;9.00;8.15;;;21.90;99.90;;;;;;5063589;28;20048;-44
2022/06/27 09:23:49;;;;;;;8.05;7.25;;;21.80;99.90;;;;;;5062134;28;20040;-46
2022/06/27 09:26:16;;;;;;;9.48;8.32;;;21.90;99.90;;;;;;5060890;28;20578;-47
2022/06/27 09:28:46;;;;;;;9.98;7.90;;;22.00;99.90;;;;;;5060875;28;20057;-49
2022/06/27 09:31:28;;;;;;;8.02;7.32;;;22.10;99.90;;;;;;5066280;28;20510;-50
2022/06/27 09:34:30;;;;;;;9.05;7.35;;;22.10;99.90;;;;;;5057659;28;20056;-51
2022/06/27 09:37:01;;;;;;;7.03;6.32;;;22.10;99.90;;;;;;4982129;28;20062;-48
2022/06/27 09:39:36;;;;;;;7.47;6.78;;;22.00;99.90;;;;;;4961415;28;20097;-51
2022/06/27 09:42:05;;;;;;;8.27;6.43;;;22.00;99.90;;;;;;4980133;28;20051;-45
2022/06/27 09:44:35;;;;;;;8.88;6.88;;;21.80;99.90;;;;;;4979510;28;20116;-44
2022/06/27 09:47:16;;;;;;;7.43;5.68;;;21.90;99.90;;;;;;4982872;28;20138;-45
2022/06/27 09:49:49;;;;;;;7.85;5.75;;;21.90;99.90;;;;;;4976990;28;20063;-47
2022/06/27 09:52:16;;;;;;;;;;;21.90;99.90;;;;;;4979879;28;20058;-46
2022/06/27 09:54:45;;;;;;;6.38;5.75;;;21.90;99.90;;;;;;4978673;28;20045;-49
2022/06/27 09:57:13;;;;;;;6.78;5.47;;;21.90;99.90;;;;;;4949125;28;20125;-50
2022/06/27 09:59:40;;;;;;;7.60;5.72;;;22.00;99.90;;;;;;4979698;28;20066;-48
2022/06/27 10:02:06;;;;;;;6.40;5.80;;;22.00;99.90;;;;;;4963426;28;20058;-47
2022/06/27 10:04:35;;;;;;;7.22;6.45;;;21.90;99.90;;;;;;4978613;28;20066;-47
2022/06/27 10:07:02;;;;;;;7.03;6.28;;;21.80;99.90;;;;;;4963983;28;20078;-44
2022/06/27 10:09:30;;;;;;;14.10;6.20;;;21.70;99.90;;;;;;4962490;28;20065;-49
2022/06/27 10:12:22;;;;;;;8.50;6.22;;;21.60;99.90;;;;;;5034847;28;20270;-46
2022/06/27 10:15:09;;;;;;;7.93;6.75;;;21.50;99.90;;;;;;5036300;28;20516;-46
2022/06/27 10:17:49;;;;;;;9.77;6.05;;;21.30;99.90;;;;;;5040571;28;20047;-47
2022/06/27 10:20:31;;;;;;;7.60;5.70;;;21.30;99.90;;;;;;5033675;28;20044;-49
2022/06/27 10:23:03;;;;;;;7.03;5.80;;;21.20;99.90;;;;;;5039411;28;20053;-46
2022/06/27 10:25:29;;;;;;;6.50;5.07;;;21.20;99.90;;;;;;5038627;28;20307;-46
2022/06/27 10:28:13;;;;;;;7.95;5.50;;;21.20;99.90;;;;;;5040641;28;20103;-50
2022/06/27 10:30:51;;;;;;;8.10;5.18;;;21.30;99.90;;;;;;5041357;28;20104;-46
2022/06/27 10:33:23;;;;;;;6.43;5.55;;;21.30;99.90;;;;;;5034734;28;20340;-48
2022/06/27 10:35:59;;;;;;;8.05;6.40;;;21.30;99.90;;;;;;5039220;28;20044;-47
2022/06/27 10:38:31;;;;;;;7.78;5.80;;;21.40;99.90;;;;;;5040335;28;20053;-44
2022/06/27 10:41:01;;;;;;;8.75;6.22;;;21.30;99.90;;;;;;5038723;28;20111;-47
2022/06/27 10:43:39;;;;;;;6.60;5.90;;;21.30;99.90;;;;;;5039484;28;20770;-46
2022/06/27 10:46:10;;;;;;;7.85;7.05;;;21.30;99.90;;;;;;5040661;28;20041;-47
2022/06/27 10:48:36;;;;;;;7.22;6.50;;;21.20;99.90;;;;;;5058441;28;20056;-47
2022/06/27 10:51:22;;;;;;;7.60;6.78;;;21.20;99.90;;;;;;5062197;28;20060;-47
2022/06/27 10:54:10;;;;;;;7.63;5.80;;;21.30;99.90;;;;;;5065447;28;20048;-44
2022/06/27 10:56:53;;;;;;;6.63;5.53;;;21.30;99.90;;;;;;5060898;28;20052;-48
2022/06/27 10:59:19;;;;;;;8.82;6.72;;;21.40;99.90;;;;;;5057228;28;20106;-46
2022/06/27 11:01:50;;;;;;;8.50;7.63;;;21.50;99.90;;;;;;5065581;28;20044;-45
2022/06/27 11:04:34;;;;;;;9.25;7.78;;;21.40;99.90;;;;;;5062225;28;20048;-48
2022/06/27 11:07:03;;;;;;;8.50;7.55;;;21.50;99.90;;;;;;5061546;28;20052;-47
2022/06/27 11:09:43;;;;;;;7.25;6.53;;;21.50;99.90;;;;;;5062321;28;20560;-43
2022/06/27 11:12:11;;;;;;;9.23;6.90;;;21.70;99.90;;;;;;5057339;28;20052;-47
2022/06/27 11:14:50;;;;;;;9.05;6.95;;;21.70;99.90;;;;;;5059716;28;20052;-45
2022/06/27 11:17:39;;;;;;;7.35;6.38;;;21.70;99.90;;;;;;5060734;28;20060;-47
2022/06/27 11:20:21;;;;;;;9.07;7.10;;;21.70;99.90;;;;;;5061331;28;20048;-45
2022/06/27 11:22:51;;;;;;;7.28;6.45;;;21.70;99.90;;;;;;5058902;28;20088;-45
2022/06/27 11:25:19;;;;;;;8.90;7.30;;;21.60;99.90;;;;;;5060055;28;20507;-45
2022/06/27 11:27:48;;;;;;;8.13;7.05;;;21.50;99.90;;;;;;5042472;28;20136;-46
2022/06/27 11:33:41;;;;;;;11.60;7.78;;;21.60;99.90;;;;;;5000288;28;20096;-46
2022/06/27 11:36:10;;;;;;;7.53;6.80;;;21.60;99.90;;;;;;5000251;28;20070;-46
2022/06/27 11:38:47;;;;;;;8.88;7.90;;;21.80;99.90;;;;;;4999662;28;20125;-48
2022/06/27 11:41:16;;;;;;;8.50;7.80;;;22.00;99.90;;;;;;4995710;28;20127;-50
2022/06/27 11:43:57;;;;;;;8.75;6.65;;;22.20;99.90;;;;;;4996701;28;20615;-45
2022/06/27 11:50:32;;;;;;;11.30;8.10;;;22.80;99.90;;;;;;4977193;28;20548;-47
2022/06/27 11:53:03;;;;;;;10.60;7.40;;;22.90;99.90;;;;;;4984393;28;20089;-46
2022/06/27 11:55:30;;;;;;;10.98;7.68;;;22.80;99.90;;;;;;4985164;28;20058;-48
2022/06/27 11:57:57;;;;;;;10.02;7.80;;;22.70;99.90;;;;;;5001423;28;20053;-46
2022/06/27 12:00:25;;;;;;;8.27;6.82;;;22.60;99.90;;;;;;5000083;28;20563;-46
2022/06/27 12:03:07;;;;;;;9.18;7.32;;;22.60;99.90;;;;;;5000764;28;20069;-45
2022/06/27 12:05:35;;;;;;;7.47;6.60;;;22.50;99.90;;;;;;5000663;28;20172;-45
2022/06/27 12:08:10;;;;;;;8.43;7.20;;;22.50;99.90;;;;;;5009387;28;20303;-45
2022/06/27 12:13:39;;;;;;;9.05;6.82;;;22.70;99.90;;;;;;5065065;28;20066;-46
2022/06/27 12:16:07;;;;;;;8.70;7.65;;;22.80;99.90;;;;;;5048192;28;20059;-44
2022/06/27 12:18:41;;;;;;;8.80;6.45;;;22.80;99.90;;;;;;5059502;28;20110;-48
2022/06/27 12:21:08;;;;;;;8.02;6.65;;;22.90;99.90;;;;;;5066476;28;20048;-50
2022/06/27 12:23:35;;;;;;;10.85;7.20;;;22.90;99.90;;;;;;5063026;28;20147;-46
2022/06/27 12:26:01;;;;;;;7.40;6.32;;;22.90;99.90;;;;;;5063461;28;20048;-48
2022/06/27 12:28:26;;;;;;;8.52;6.90;;;22.90;99.90;;;;;;5045282;28;20057;-47
2022/06/27 12:30:52;;;;;;;9.15;6.65;;;22.90;99.90;;;;;;5063209;28;20205;-45
2022/06/27 12:33:18;;;;;;;7.68;6.78;;;22.80;99.90;;;;;;5062563;28;20269;-47
2022/06/27 12:35:44;;;;;;;7.65;6.80;;;22.70;99.90;;;;;;5063115;28;20049;-45
2022/06/27 12:38:10;;;;;;;7.65;6.95;;;22.60;99.90;;;;;;5062898;28;20051;-46
2022/06/27 12:40:37;;;;;;;8.60;7.03;;;22.70;99.90;;;;;;5062622;28;20044;-46
2022/06/27 12:43:04;;;;;;;9.43;7.10;;;22.60;99.90;;;;;;5062780;28;20086;-47
2022/06/27 12:45:35;;;;;;;8.55;7.05;;;22.60;99.90;;;;;;5045343;28;20348;-46
2022/06/27 12:48:07;;;;;;;10.32;7.47;;;22.80;99.90;;;;;;5062368;28;20045;-47
2022/06/27 12:50:35;;;;;;;10.90;7.32;;;22.70;99.90;;;;;;5062241;28;20056;-49
2022/06/27 12:53:03;;;;;;;9.23;7.38;;;22.70;99.90;;;;;;5062861;28;20110;-48
2022/06/27 12:55:28;;;;;;;9.60;7.57;;;22.80;99.90;;;;;;5036229;28;20099;-46